createdAt,value
2023-05-06T00:01:36.589Z,95.72
2023-05-06T00:04:03.405Z,95.83
2023-05-06T00:06:30.090Z,96.06
2023-05-06T00:08:56.532Z,95.81
2023-05-06T00:11:22.992Z,95.89
2023-05-06T00:13:49.471Z,96.25
2023-05-06T00:16:16.067Z,96.46
2023-05-06T00:18:42.701Z,95.91
2023-05-06T00:21:09.303Z,96.01
2023-05-06T00:23:35.790Z,95.67
2023-05-06T00:26:02.439Z,96.80
2023-05-06T00:28:29.041Z,96.22
2023-05-06T00:30:55.493Z,95.89
2023-05-06T00:33:21.981Z,96.36
2023-05-06T00:35:48.760Z,96.48
2023-05-06T00:38:15.553Z,96.45
2023-05-06T00:40:42.104Z,96.12
2023-05-06T00:43:08.925Z,96.65
2023-05-06T00:45:35.526Z,96.38
2023-05-06T00:48:04.259Z,96.53
2023-05-06T00:50:32.600Z,95.81
2023-05-06T00:52:59.988Z,96.09
2023-05-06T00:55:27.411Z,96.74
2023-05-06T00:57:54.520Z,96.76
2023-05-06T01:00:21.619Z,96.20
2023-05-06T01:02:48.887Z,96.34
2023-05-06T01:05:22.461Z,96.73
2023-05-06T01:07:55.539Z,96.55
2023-05-06T01:10:36.503Z,97.09
2023-05-06T01:13:10.028Z,96.49
2023-05-06T01:15:47.950Z,96.80
2023-05-06T01:18:20.919Z,96.79
2023-05-06T01:20:52.495Z,96.65
2023-05-06T01:23:19.801Z,96.71
2023-05-06T01:25:46.371Z,96.33
2023-05-06T01:28:13.651Z,96.46
2023-05-06T01:30:57.818Z,96.36
2023-05-06T01:34:08.940Z,96.32
2023-05-06T01:37:01.208Z,95.92
2023-05-06T01:39:30.817Z,96.73
2023-05-06T01:42:00.759Z,96.09
2023-05-06T01:44:31.896Z,96.81
2023-05-06T01:46:58.369Z,96.29
2023-05-06T01:49:26.246Z,96.36
2023-05-06T01:51:53.646Z,95.92
2023-05-06T01:54:20.327Z,96.70
2023-05-06T01:56:46.914Z,95.97
2023-05-06T01:59:13.421Z,95.40
2023-05-06T02:01:39.935Z,96.00
2023-05-06T02:04:06.637Z,96.25
2023-05-06T02:06:33.182Z,96.22
2023-05-06T02:08:59.728Z,95.87
2023-05-06T02:11:26.278Z,96.18
2023-05-06T02:13:52.816Z,96.18
2023-05-06T02:16:19.292Z,96.07
2023-05-06T02:18:45.898Z,96.29
2023-05-06T02:21:12.506Z,96.68
2023-05-06T02:23:39.008Z,96.95
2023-05-06T02:26:05.653Z,96.53
2023-05-06T02:28:32.123Z,96.17
2023-05-06T02:30:59.119Z,96.22
2023-05-06T02:33:26.281Z,95.78
2023-05-06T02:35:52.746Z,96.60
2023-05-06T02:38:19.805Z,96.80
2023-05-06T02:40:46.299Z,97.03
2023-05-06T02:43:12.949Z,96.70
2023-05-06T02:45:39.539Z,96.63
2023-05-06T02:48:06.564Z,96.81
2023-05-06T02:50:35.373Z,96.67
2023-05-06T02:53:01.821Z,96.35
2023-05-06T02:55:28.334Z,96.63
2023-05-06T02:57:54.765Z,96.41
2023-05-06T03:00:21.254Z,96.67
2023-05-06T03:02:47.762Z,96.97
2023-05-06T03:05:14.290Z,96.83
2023-05-06T03:07:41.123Z,96.38
2023-05-06T03:10:08.093Z,96.89
2023-05-06T03:12:34.856Z,97.01
2023-05-06T03:15:01.425Z,96.12
2023-05-06T03:17:27.982Z,96.30
2023-05-06T03:19:54.537Z,96.54
2023-05-06T03:22:20.987Z,96.45
2023-05-06T03:24:47.457Z,97.03
2023-05-06T03:27:14.074Z,96.98
2023-05-06T03:29:40.551Z,96.52
2023-05-06T03:32:07.184Z,96.58
2023-05-06T03:34:33.654Z,96.80
2023-05-06T03:37:00.548Z,96.56
2023-05-06T03:39:27.195Z,97.07
2023-05-06T03:41:53.826Z,96.93
2023-05-06T03:44:20.310Z,96.63
2023-05-06T03:46:46.817Z,96.81
2023-05-06T03:49:13.382Z,96.43
2023-05-06T03:51:40.169Z,96.58
2023-05-06T03:54:06.719Z,96.73
2023-05-06T03:56:33.162Z,96.72
2023-05-06T03:58:59.685Z,96.89
2023-05-06T04:01:26.212Z,97.05
2023-05-06T04:03:54.490Z,97.03
2023-05-06T04:06:21.152Z,96.82
2023-05-06T04:08:47.767Z,97.05
2023-05-06T04:11:14.497Z,96.87
2023-05-06T04:13:40.965Z,97.10
2023-05-06T04:16:07.767Z,97.07
2023-05-06T04:18:34.351Z,96.82
2023-05-06T04:21:00.960Z,97.13
2023-05-06T04:23:27.637Z,96.67
2023-05-06T04:25:54.260Z,97.10
2023-05-06T04:28:20.756Z,97.23
2023-05-06T04:30:47.288Z,97.25
2023-05-06T04:33:13.857Z,97.90
2023-05-06T04:35:41.078Z,97.40
2023-05-06T04:38:07.641Z,97.16
2023-05-06T04:40:36.761Z,97.18
2023-05-06T04:43:03.202Z,97.46
2023-05-06T04:45:29.942Z,96.91
2023-05-06T04:47:56.673Z,97.21
2023-05-06T04:50:23.221Z,96.83
2023-05-06T04:52:49.820Z,97.84
2023-05-06T04:55:16.305Z,97.27
2023-05-06T04:57:42.771Z,96.79
2023-05-06T05:00:10.842Z,96.73
2023-05-06T05:02:37.820Z,97.07
2023-05-06T05:05:04.761Z,96.93
2023-05-06T05:07:31.219Z,97.33
2023-05-06T05:09:57.687Z,97.10
2023-05-06T05:12:24.255Z,97.13
2023-05-06T05:14:51.300Z,96.53
2023-05-06T05:17:17.870Z,96.54
2023-05-06T05:19:44.413Z,97.13
2023-05-06T05:22:11.208Z,97.44
2023-05-06T05:24:37.719Z,97.34
2023-05-06T05:27:04.236Z,97.38
2023-05-06T05:29:30.856Z,96.95
2023-05-06T05:31:57.379Z,96.56
2023-05-06T05:34:23.922Z,97.38
2023-05-06T05:36:50.469Z,97.48
2023-05-06T05:39:16.984Z,97.06
2023-05-06T05:41:43.685Z,96.75
2023-05-06T05:44:10.556Z,96.40
2023-05-06T05:46:37.163Z,96.56
2023-05-06T05:49:03.696Z,96.50
2023-05-06T05:51:31.127Z,96.12
2023-05-06T05:53:57.704Z,96.24
2023-05-06T05:56:24.262Z,96.05
2023-05-06T05:58:50.953Z,96.45
2023-05-06T06:01:17.757Z,95.62
2023-05-06T06:03:44.586Z,95.72
2023-05-06T06:06:12.027Z,95.35
2023-05-06T06:08:50.838Z,95.47
2023-05-06T06:11:17.368Z,95.58
2023-05-06T06:13:43.840Z,95.75
2023-05-06T06:16:11.090Z,95.40
2023-05-06T06:18:37.721Z,95.27
2023-05-06T06:21:04.353Z,95.19
2023-05-06T06:23:30.952Z,95.48
2023-05-06T06:25:57.477Z,94.91
2023-05-06T06:28:24.000Z,94.45
2023-05-06T06:30:50.786Z,95.01
2023-05-06T06:33:17.352Z,94.28
2023-05-06T06:35:43.874Z,93.80
2023-05-06T06:38:10.462Z,93.77
2023-05-06T06:40:36.940Z,93.64
2023-05-06T06:43:03.544Z,94.06
2023-05-06T06:45:30.152Z,93.74
2023-05-06T06:47:56.740Z,93.76
2023-05-06T06:50:23.373Z,93.70
2023-05-06T06:52:49.939Z,93.66
2023-05-06T06:55:16.468Z,93.54
2023-05-06T06:57:43.007Z,93.48
2023-05-06T07:00:10.278Z,93.00
2023-05-06T07:02:36.812Z,93.41
2023-05-06T07:05:04.135Z,92.95
2023-05-06T07:07:30.797Z,92.95
2023-05-06T07:09:58.018Z,92.70
2023-05-06T07:12:26.677Z,92.42
2023-05-06T07:14:53.175Z,91.96
2023-05-06T07:17:19.870Z,90.25
2023-05-06T07:19:46.435Z,91.14
2023-05-06T07:22:13.125Z,89.34
2023-05-06T07:24:39.675Z,89.61
2023-05-06T07:27:06.447Z,88.51
2023-05-06T07:29:34.822Z,87.57
2023-05-06T07:32:01.364Z,86.01
2023-05-06T07:34:27.868Z,87.30
2023-05-06T07:36:54.426Z,86.58
2023-05-06T07:39:21.136Z,87.21
2023-05-06T07:41:47.829Z,87.38
2023-05-06T07:44:14.263Z,85.51
2023-05-06T07:46:40.951Z,87.48
2023-05-06T07:49:07.679Z,86.98
2023-05-06T07:51:34.232Z,83.83
2023-05-06T07:54:00.748Z,85.75
2023-05-06T07:56:27.249Z,84.84
2023-05-06T07:58:54.083Z,82.70
2023-05-06T08:01:20.908Z,79.98
2023-05-06T08:03:47.512Z,79.29
2023-05-06T08:06:14.210Z,79.19
2023-05-06T08:08:40.712Z,80.37
2023-05-06T08:11:07.175Z,81.08
2023-05-06T08:13:33.673Z,79.33
2023-05-06T08:16:02.358Z,81.06
2023-05-06T08:18:29.215Z,77.28
2023-05-06T08:20:55.976Z,78.67
2023-05-06T08:23:22.596Z,77.22
2023-05-06T08:25:49.258Z,74.55
2023-05-06T08:28:15.949Z,74.78
2023-05-06T08:30:42.484Z,74.04
2023-05-06T08:33:09.140Z,70.56
2023-05-06T08:35:35.751Z,69.89
2023-05-06T08:38:02.274Z,67.04
2023-05-06T08:40:32.665Z,63.93
2023-05-06T08:42:59.877Z,66.63
2023-05-06T08:45:28.769Z,69.35
2023-05-06T08:47:56.224Z,69.17
2023-05-06T08:50:23.566Z,68.54
2023-05-06T08:52:50.876Z,65.25
2023-05-06T08:55:19.337Z,63.61
2023-05-06T08:57:46.457Z,67.47
2023-05-06T09:00:13.575Z,66.43
2023-05-06T09:02:42.909Z,69.26
2023-05-06T09:05:11.378Z,67.87
2023-05-06T09:07:38.178Z,68.32
2023-05-06T09:10:13.215Z,66.57
2023-05-06T09:12:40.085Z,64.45
2023-05-06T09:15:07.278Z,66.20
2023-05-06T09:17:33.901Z,64.93
2023-05-06T09:20:00.542Z,62.24
2023-05-06T09:22:28.938Z,63.91
2023-05-06T09:24:59.309Z,61.64
2023-05-06T09:27:28.295Z,60.21
2023-05-06T09:30:02.055Z,62.03
2023-05-06T09:32:29.482Z,62.80
2023-05-06T09:34:56.465Z,61.05
2023-05-06T09:37:23.381Z,62.17
2023-05-06T09:39:54.591Z,65.02
2023-05-06T09:42:26.243Z,63.05
2023-05-06T09:45:02.677Z,62.27
2023-05-06T09:47:34.546Z,62.90
2023-05-06T09:50:02.771Z,63.15
2023-05-06T09:52:30.166Z,61.50
2023-05-06T09:54:57.675Z,61.66
2023-05-06T09:57:24.704Z,63.29
2023-05-06T09:59:54.662Z,64.20
2023-05-06T10:02:23.878Z,62.39
2023-05-06T10:04:51.161Z,62.39
2023-05-06T10:07:22.807Z,65.53
2023-05-06T10:09:51.400Z,64.15
2023-05-06T10:12:19.053Z,62.17
2023-05-06T10:14:46.176Z,63.02
2023-05-06T10:17:13.985Z,62.42
2023-05-06T10:19:44.911Z,59.78
2023-05-06T10:22:18.916Z,59.91
2023-05-06T10:25:12.483Z,61.79
2023-05-06T10:27:43.501Z,61.64
2023-05-06T10:30:13.304Z,62.45
2023-05-06T10:32:43.558Z,62.48
2023-05-06T10:35:27.503Z,63.63
2023-05-06T10:37:56.600Z,63.25
2023-05-06T10:40:23.942Z,59.54
2023-05-06T10:42:51.500Z,58.96
2023-05-06T10:45:19.127Z,62.29
2023-05-06T10:47:54.813Z,59.76
2023-05-06T10:50:25.694Z,59.29
2023-05-06T10:52:57.709Z,59.69
2023-05-06T10:55:35.301Z,58.42
2023-05-06T10:58:16.053Z,61.36
2023-05-06T11:00:54.142Z,61.11
2023-05-06T11:03:24.006Z,56.52
2023-05-06T11:05:52.060Z,60.42
2023-05-06T11:08:24.233Z,59.39
2023-05-06T11:10:51.304Z,60.06
2023-05-06T11:13:21.296Z,58.51
2023-05-06T11:15:52.120Z,59.42
2023-05-06T11:18:24.686Z,60.41
2023-05-06T11:20:52.073Z,57.27
2023-05-06T11:23:19.095Z,59.98
2023-05-06T11:25:47.245Z,60.47
2023-05-06T11:28:14.860Z,56.13
2023-05-06T11:30:43.901Z,58.17
2023-05-06T11:33:19.012Z,56.13
2023-05-06T11:35:46.195Z,57.37
2023-05-06T11:38:12.716Z,54.99
2023-05-06T11:40:41.876Z,55.64
2023-05-06T11:43:15.736Z,56.14
2023-05-06T11:45:49.911Z,53.97
2023-05-06T11:48:18.030Z,55.24
2023-05-06T11:50:48.707Z,55.93
2023-05-06T11:53:19.411Z,55.95
2023-05-06T11:55:46.606Z,53.58
2023-05-06T11:58:24.421Z,56.40
2023-05-06T12:00:54.583Z,53.49
2023-05-06T12:03:22.089Z,51.02
2023-05-06T12:05:50.085Z,53.90
2023-05-06T12:08:27.245Z,56.36
2023-05-06T12:10:58.695Z,55.62
2023-05-06T12:13:25.568Z,56.27
2023-05-06T12:15:54.535Z,51.24
2023-05-06T12:18:22.076Z,52.82
2023-05-06T12:20:48.584Z,51.56
2023-05-06T12:23:16.154Z,53.39
2023-05-06T12:25:44.715Z,51.88
2023-05-06T12:28:18.241Z,54.36
2023-05-06T12:30:45.910Z,51.97
2023-05-06T12:33:12.932Z,51.92
2023-05-06T12:35:40.817Z,51.63
2023-05-06T12:38:08.655Z,51.80
2023-05-06T12:40:35.483Z,49.98
2023-05-06T12:43:01.997Z,50.79
2023-05-06T12:45:28.687Z,46.64
2023-05-06T12:48:08.395Z,49.56
2023-05-06T12:50:37.874Z,50.79
2023-05-06T12:53:05.651Z,50.83
2023-05-06T12:55:33.093Z,48.53
2023-05-06T12:58:00.119Z,49.64
2023-05-06T13:00:26.699Z,50.12
2023-05-06T13:02:53.291Z,51.06
2023-05-06T13:05:19.880Z,50.82
2023-05-06T13:07:46.406Z,50.06
2023-05-06T13:10:13.135Z,49.64
2023-05-06T13:12:39.924Z,49.59
2023-05-06T13:15:07.694Z,48.95
2023-05-06T13:17:34.164Z,49.17
2023-05-06T13:20:01.550Z,50.25
2023-05-06T13:22:28.670Z,47.32
2023-05-06T13:24:55.138Z,49.14
2023-05-06T13:27:21.832Z,51.37
2023-05-06T13:29:48.267Z,48.33
2023-05-06T13:32:14.761Z,50.71
2023-05-06T13:34:41.254Z,48.26
2023-05-06T13:37:07.752Z,46.21
2023-05-06T13:39:34.417Z,46.58
2023-05-06T13:42:02.920Z,50.04
2023-05-06T13:44:29.705Z,46.28
2023-05-06T13:46:56.318Z,47.81
2023-05-06T13:49:22.939Z,47.84
2023-05-06T13:51:49.891Z,49.32
2023-05-06T13:54:16.425Z,48.53
2023-05-06T13:56:43.055Z,45.96
2023-05-06T13:59:11.879Z,47.27
2023-05-06T14:01:38.810Z,47.05
2023-05-06T14:04:05.591Z,45.68
2023-05-06T14:06:32.170Z,44.85
2023-05-06T14:08:58.648Z,47.66
2023-05-06T14:11:25.220Z,44.16
2023-05-06T14:13:51.704Z,44.59
2023-05-06T14:16:18.245Z,43.75
2023-05-06T14:18:44.813Z,45.24
2023-05-06T14:21:11.284Z,44.38
2023-05-06T14:23:37.946Z,45.44
2023-05-06T14:26:04.512Z,46.37
2023-05-06T14:28:30.965Z,48.89
2023-05-06T14:30:58.131Z,46.65
2023-05-06T14:33:24.707Z,45.04
2023-05-06T14:35:52.784Z,45.65
2023-05-06T14:38:19.906Z,42.83
2023-05-06T14:40:46.490Z,43.43
2023-05-06T14:43:13.049Z,46.26
2023-05-06T14:45:39.582Z,42.39
2023-05-06T14:48:06.786Z,43.30
2023-05-06T14:50:33.343Z,42.83
2023-05-06T14:53:00.576Z,45.31
2023-05-06T14:55:28.747Z,46.24
2023-05-06T14:57:55.291Z,45.32
2023-05-06T15:00:21.806Z,47.06
2023-05-06T15:02:48.336Z,47.91
2023-05-06T15:05:15.158Z,45.52
2023-05-06T15:07:42.142Z,47.88
2023-05-06T15:10:09.047Z,46.92
2023-05-06T15:12:36.715Z,48.22
2023-05-06T15:15:05.155Z,44.31
2023-05-06T15:17:32.529Z,48.90
2023-05-06T15:19:59.134Z,48.32
2023-05-06T15:22:25.661Z,50.92
2023-05-06T15:24:52.236Z,48.80
2023-05-06T15:27:18.757Z,46.72
2023-05-06T15:29:45.368Z,47.21
2023-05-06T15:32:11.856Z,48.27
2023-05-06T15:34:38.375Z,47.06
2023-05-06T15:37:05.072Z,46.22
2023-05-06T15:39:37.001Z,49.82
2023-05-06T15:42:04.293Z,48.57
2023-05-06T15:44:32.385Z,48.96
2023-05-06T15:46:59.073Z,49.88
2023-05-06T15:49:51.044Z,50.60
2023-05-06T15:52:12.470Z,48.10
2023-05-06T15:54:39.993Z,49.28
2023-05-06T15:57:07.724Z,47.95
2023-05-06T15:59:34.358Z,48.34
2023-05-06T16:05:57.540Z,49.50
2023-05-06T16:08:24.057Z,51.42
2023-05-06T16:10:51.467Z,49.27
2023-05-06T16:13:20.162Z,49.48
2023-05-06T16:15:47.224Z,49.69
2023-05-06T16:18:13.854Z,50.20
2023-05-06T16:20:40.777Z,50.19
2023-05-06T16:23:07.381Z,52.97
2023-05-06T16:25:34.027Z,48.82
2023-05-06T16:28:00.777Z,48.63
2023-05-06T16:30:27.255Z,53.38
2023-05-06T16:32:53.899Z,50.99
2023-05-06T16:35:20.716Z,50.73
2023-05-06T16:37:47.253Z,49.53
2023-05-06T16:40:14.927Z,50.83
2023-05-06T16:42:41.581Z,52.55
2023-05-06T16:45:08.468Z,51.73
2023-05-06T16:47:35.358Z,51.96
2023-05-06T16:50:02.854Z,53.22
2023-05-06T16:52:30.882Z,53.07
2023-05-06T16:54:57.570Z,52.66
2023-05-06T16:57:23.998Z,55.48
2023-05-06T16:59:50.540Z,52.82
2023-05-06T17:02:17.042Z,53.54
2023-05-06T17:04:43.577Z,53.53
2023-05-06T17:07:11.151Z,52.86
2023-05-06T17:09:38.849Z,51.92
2023-05-06T17:12:07.398Z,57.17
2023-05-06T17:14:35.372Z,54.51
2023-05-06T17:17:04.228Z,54.84
2023-05-06T17:19:30.789Z,59.37
2023-05-06T17:21:57.889Z,56.08
2023-05-06T17:24:26.745Z,57.52
2023-05-06T17:26:53.257Z,58.77
2023-05-06T17:29:22.148Z,58.35
2023-05-06T17:31:49.675Z,57.23
2023-05-06T17:34:16.695Z,56.70
2023-05-06T17:36:43.344Z,58.59
2023-05-06T17:39:09.860Z,57.46
2023-05-06T17:41:36.442Z,56.92
2023-05-06T17:44:03.012Z,57.34
2023-05-06T17:46:29.616Z,57.87
2023-05-06T17:48:56.168Z,61.45
2023-05-06T17:51:22.763Z,59.01
2023-05-06T17:53:49.245Z,63.69
2023-05-06T17:56:16.558Z,66.34
2023-05-06T17:58:43.061Z,68.91
2023-05-06T18:01:09.713Z,70.53
2023-05-06T18:03:36.343Z,73.42
2023-05-06T18:06:03.095Z,75.28
2023-05-06T18:08:29.583Z,75.82
2023-05-06T18:10:56.158Z,75.65
2023-05-06T18:13:23.195Z,78.34
2023-05-06T18:15:49.788Z,80.13
2023-05-06T18:18:16.490Z,80.40
2023-05-06T18:20:42.998Z,83.06
2023-05-06T18:23:09.477Z,83.33
2023-05-06T18:25:35.947Z,83.59
2023-05-06T18:28:04.853Z,84.77
2023-05-06T18:30:31.422Z,84.12
2023-05-06T18:32:58.046Z,84.58
2023-05-06T18:35:24.680Z,84.59
2023-05-06T18:37:51.100Z,84.77
2023-05-06T18:40:17.864Z,85.53
2023-05-06T18:42:44.416Z,86.34
2023-05-06T18:45:12.034Z,85.61
2023-05-06T18:47:40.178Z,85.20
2023-05-06T18:50:08.295Z,85.89
2023-05-06T18:52:37.458Z,86.34
2023-05-06T18:55:05.376Z,85.63
2023-05-06T18:57:32.182Z,86.15
2023-05-06T18:59:58.655Z,86.66
2023-05-06T19:02:25.453Z,86.91
2023-05-06T19:04:52.087Z,87.54
2023-05-06T19:07:18.615Z,86.62
2023-05-06T19:09:45.460Z,86.67
2023-05-06T19:12:11.994Z,86.60
2023-05-06T19:14:38.600Z,87.13
2023-05-06T19:17:05.203Z,87.48
2023-05-06T19:19:31.899Z,87.91
2023-05-06T19:21:59.102Z,87.70
2023-05-06T19:26:52.435Z,87.96
2023-05-06T19:29:19.079Z,88.20
2023-05-06T19:31:45.558Z,88.10
2023-05-06T19:34:12.047Z,88.12
2023-05-06T19:36:38.562Z,88.32
2023-05-06T19:39:05.058Z,88.88
2023-05-06T19:41:31.570Z,89.31
2023-05-06T19:43:58.093Z,89.38
2023-05-06T19:46:24.664Z,88.99
2023-05-06T19:48:51.219Z,88.26
2023-05-06T19:51:17.675Z,88.78
2023-05-06T19:53:44.239Z,88.64
2023-05-06T19:56:12.607Z,89.76
2023-05-06T19:58:40.016Z,89.57
2023-05-06T20:01:06.540Z,89.07
2023-05-06T20:03:33.690Z,89.28
2023-05-06T20:06:00.770Z,89.53
2023-05-06T20:08:27.342Z,89.86
2023-05-06T20:10:54.024Z,89.74
2023-05-06T20:13:20.913Z,89.09
2023-05-06T20:15:48.745Z,89.52
2023-05-06T20:18:15.423Z,89.03
2023-05-06T20:20:43.237Z,89.04
2023-05-06T20:23:09.806Z,88.34
2023-05-06T20:25:37.459Z,88.66
2023-05-06T20:28:06.538Z,89.55
2023-05-06T20:30:33.731Z,89.73
2023-05-06T20:33:00.320Z,90.01
2023-05-06T20:35:27.195Z,89.45
2023-05-06T20:37:54.624Z,88.55
2023-05-06T20:40:21.686Z,89.77
2023-05-06T20:42:48.431Z,90.12
2023-05-06T20:45:15.004Z,90.42
2023-05-06T20:47:41.709Z,90.22
2023-05-06T20:50:08.622Z,90.74
2023-05-06T20:52:35.136Z,90.96
2023-05-06T20:55:02.077Z,91.33
2023-05-06T20:57:28.639Z,91.70
2023-05-06T20:59:56.136Z,91.89
2023-05-06T21:02:22.741Z,92.13
2023-05-06T21:04:49.515Z,91.80
2023-05-06T21:07:16.006Z,91.24
2023-05-06T21:09:42.494Z,91.28
2023-05-06T21:12:09.395Z,91.35
2023-05-06T21:14:35.860Z,91.94
2023-05-06T21:17:02.453Z,91.71
2023-05-06T21:19:28.987Z,91.29
2023-05-06T21:21:56.826Z,91.50
2023-05-06T21:24:23.348Z,90.87
2023-05-06T21:26:51.262Z,91.44
2023-05-06T21:29:17.749Z,91.16
2023-05-06T21:31:44.185Z,91.24
2023-05-06T21:34:10.650Z,91.64
2023-05-06T21:36:37.154Z,92.54
2023-05-06T21:39:08.353Z,92.44
2023-05-06T21:41:36.222Z,92.15
2023-05-06T21:44:07.917Z,92.25
2023-05-06T21:46:35.211Z,92.70
2023-05-06T21:49:02.045Z,92.78
2023-05-06T21:51:32.241Z,92.82
2023-05-06T21:53:58.930Z,92.29
2023-05-06T21:56:25.516Z,92.15
2023-05-06T21:58:53.272Z,92.21
2023-05-06T22:01:19.838Z,92.24
2023-05-06T22:03:48.371Z,92.57
2023-05-06T22:06:15.564Z,92.45
2023-05-06T22:08:42.387Z,92.23
2023-05-06T22:11:09.183Z,92.36
2023-05-06T22:13:36.203Z,92.33
2023-05-06T22:16:03.240Z,92.33
2023-05-06T22:18:30.016Z,92.81
2023-05-06T22:20:57.779Z,92.65
2023-05-06T22:23:25.468Z,92.81
2023-05-06T22:25:52.148Z,92.42
2023-05-06T22:28:19.365Z,92.60
2023-05-06T22:30:46.049Z,92.20
2023-05-06T22:33:12.748Z,92.80
2023-05-06T22:35:39.265Z,92.75
2023-05-06T22:38:05.931Z,92.90
2023-05-06T22:40:32.476Z,92.83
2023-05-06T22:42:59.040Z,92.60
2023-05-06T22:45:26.389Z,92.54
2023-05-06T22:47:52.954Z,93.09
2023-05-06T22:50:19.444Z,93.06
2023-05-06T22:52:46.009Z,92.55
2023-05-06T22:55:12.731Z,92.72
2023-05-06T22:57:39.468Z,92.60
2023-05-06T23:00:08.771Z,92.79
2023-05-06T23:02:35.310Z,92.87
2023-05-06T23:05:01.892Z,93.15
2023-05-06T23:07:28.446Z,92.96
2023-05-06T23:09:55.088Z,93.09
2023-05-06T23:12:21.672Z,92.79
2023-05-06T23:14:48.184Z,93.26
2023-05-06T23:17:14.827Z,92.69
2023-05-06T23:19:41.366Z,92.71
2023-05-06T23:22:07.947Z,92.89
2023-05-06T23:24:34.464Z,93.02
2023-05-06T23:27:01.382Z,92.93
2023-05-06T23:29:27.845Z,92.83
2023-05-06T23:31:57.343Z,92.78
2023-05-06T23:34:23.821Z,92.70
2023-05-06T23:36:50.619Z,92.61
2023-05-06T23:39:17.542Z,92.86
2023-05-06T23:41:44.356Z,93.23
2023-05-06T23:44:10.865Z,92.69
2023-05-06T23:46:37.434Z,93.08
2023-05-06T23:49:05.321Z,92.89
2023-05-06T23:51:32.674Z,92.99
2023-05-06T23:53:59.197Z,93.21
2023-05-06T23:56:25.711Z,92.79
2023-05-06T23:58:52.240Z,93.06
